Time;durP1;ratioP1;P1;durP2;ratioP2;P2;SDS_P1;SDS_P2;PMS_P1;PMS_P2;Temp;Humidity;BMP_temperature;BMP_pressure;BME280_temperature;BME280_humidity;BME280_pressure;Samples;Min_cycle;Max_cycle;Signal;HPM_P1;HPM_P2
2021/04/27 06:17:50;;;;;;;18.95;10.27;;;;;;;;;;5079804;27;20395;-63
2021/04/27 06:20:15;;;;;;;19.08;9.93;;;;;;;;;;5067227;28;20070;-63
2021/04/27 06:22:41;;;;;;;19.40;11.07;;;;;;;;;;5066883;28;20039;-63
2021/04/27 06:25:07;;;;;;;20.00;10.73;;;;;;;;;;5069948;28;20123;-63
2021/04/27 06:27:33;;;;;;;23.63;11.40;;;;;;;;;;5074101;28;20082;-63
2021/04/27 06:30:00;;;;;;;17.70;9.63;;;;;;;;;;5069022;28;20420;-64
2021/04/27 06:32:26;;;;;;;18.52;10.25;;;;;;;;;;5079629;28;20051;-64
2021/04/27 06:34:51;;;;;;;19.33;11.02;;;;;;;;;;5080043;28;20417;-64
2021/04/27 06:37:17;;;;;;;20.42;9.02;;;;;;;;;;5076401;28;20039;-64
2021/04/27 06:39:42;;;;;;;21.33;10.05;;;;;;;;;;5072335;28;20016;-63
2021/04/27 06:42:08;;;;;;;20.17;10.60;;;;;;;;;;5084668;28;20027;-62
2021/04/27 06:44:33;;;;;;;19.38;9.35;;;;;;;;;;5070090;28;20024;-64
2021/04/27 06:46:59;;;;;;;18.55;9.90;;;;;;;;;;5072073;28;20024;-64
2021/04/27 06:49:24;;;;;;;22.35;10.65;;;;;;;;;;5052760;28;20021;-63
2021/04/27 06:51:50;;;;;;;19.05;9.98;;;;;;;;;;5053615;28;20370;-62
2021/04/27 06:54:15;;;;;;;19.23;10.32;;;;;;;;;;5055244;28;20019;-62
2021/04/27 06:56:41;;;;;;;15.15;10.00;;;;;;;;;;5059794;28;20066;-63
2021/04/27 06:59:09;;;;;;;17.27;9.27;;;;;;;;;;5072905;28;20020;-64
2021/04/27 07:01:35;;;;;;;19.85;11.48;;;;;;;;;;5077541;28;20017;-62
2021/04/27 07:04:00;;;;;;;15.05;9.57;;;;;;;;;;5079263;28;20131;-61
2021/04/27 07:06:25;;;;;;;18.15;8.20;;;;;;;;;;5072998;28;20025;-65
2021/04/27 07:08:51;;;;;;;25.85;10.88;;;;;;;;;;5077585;28;20025;-67
2021/04/27 07:11:16;;;;;;;19.33;9.00;;;;;;;;;;5075001;28;20357;-68
2021/04/27 07:13:42;;;;;;;16.20;9.80;;;;;;;;;;5070076;28;20579;-66
2021/04/27 07:16:07;;;;;;;18.27;8.85;;;;;;;;;;5063884;28;20397;-68
2021/04/27 07:18:32;;;;;;;16.42;9.60;;;;;;;;;;5064755;28;20465;-66
2021/04/27 07:20:58;;;;;;;17.55;10.32;;;;;;;;;;5074276;28;20342;-66
2021/04/27 07:23:24;;;;;;;18.08;9.57;;;;;;;;;;5081877;28;20024;-65
2021/04/27 07:25:49;;;;;;;17.08;9.77;;;;;;;;;;5069930;28;20056;-65
2021/04/27 07:28:15;;;;;;;14.60;9.10;;;;;;;;;;5064105;28;20543;-66
2021/04/27 07:30:41;;;;;;;16.92;9.10;;;;;;;;;;5053229;28;20111;-65
2021/04/27 07:33:06;;;;;;;24.23;9.93;;;;;;;;;;5054125;28;20108;-66
2021/04/27 07:35:32;;;;;;;21.17;9.93;;;;;;;;;;5057004;28;20017;-65
2021/04/27 07:38:01;;;;;;;18.15;9.38;;;;;;;;;;5060413;28;20021;-65
2021/04/27 07:40:30;;;;;;;17.33;9.07;;;;;;;;;;5039502;28;20028;-64
2021/04/27 07:42:55;;;;;;;17.17;10.13;;;;;;;;;;5053481;28;20430;-64
2021/04/27 07:45:21;;;;;;;17.67;8.70;;;;;;;;;;5053471;28;20119;-63
2021/04/27 07:47:46;;;;;;;15.95;9.43;;;;;;;;;;5046646;28;20845;-62
2021/04/27 07:50:12;;;;;;;25.80;11.25;;;;;;;;;;5047913;28;20285;-69
2021/04/27 07:52:39;;;;;;;17.00;9.75;;;;;;;;;;5043798;28;20378;-69
2021/04/27 07:55:05;;;;;;;18.98;9.50;;;;;;;;;;5054028;28;20493;-70
2021/04/27 07:57:31;;;;;;;20.10;9.48;;;;;;;;;;5061696;28;20036;-65
2021/04/27 07:59:56;;;;;;;18.67;9.07;;;;;;;;;;5073334;28;20035;-65
2021/04/27 08:02:22;;;;;;;19.70;9.82;;;;;;;;;;5073074;28;20028;-68
2021/04/27 08:04:47;;;;;;;16.75;8.85;;;;;;;;;;5073326;28;20496;-68
2021/04/27 08:07:13;;;;;;;17.60;9.05;;;;;;;;;;5073561;28;20186;-68
2021/04/27 08:09:38;;;;;;;25.70;8.43;;;;;;;;;;5069719;28;20107;-67
2021/04/27 08:12:04;;;;;;;19.08;8.50;;;;;;;;;;5041542;28;20027;-67
2021/04/27 08:14:30;;;;;;;17.98;9.55;;;;;;;;;;5044363;28;20013;-69
2021/04/27 08:16:55;;;;;;;23.35;10.13;;;;;;;;;;5052518;28;20045;-68
2021/04/27 08:19:21;;;;;;;20.05;8.95;;;;;;;;;;5053042;28;20516;-69
2021/04/27 08:21:46;;;;;;;15.95;8.55;;;;;;;;;;5052880;28;20017;-68
2021/04/27 08:24:12;;;;;;;16.42;8.88;;;;;;;;;;5051446;28;20052;-68
2021/04/27 08:26:37;;;;;;;16.55;9.50;;;;;;;;;;5043485;28;20363;-68
2021/04/27 08:29:03;;;;;;;17.80;9.77;;;;;;;;;;5050684;28;20013;-67
2021/04/27 08:31:28;;;;;;;16.05;8.93;;;;;;;;;;5051593;28;20029;-67
2021/04/27 08:33:54;;;;;;;29.95;8.15;;;;;;;;;;5053791;28;20367;-66
2021/04/27 08:36:19;;;;;;;13.68;8.25;;;;;;;;;;5053467;28;20547;-66
2021/04/27 08:38:45;;;;;;;16.48;8.90;;;;;;;;;;5048451;28;20389;-63
2021/04/27 08:41:10;;;;;;;17.65;8.43;;;;;;;;;;5052061;28;20025;-65
2021/04/27 08:43:36;;;;;;;19.33;9.90;;;;;;;;;;5052940;28;20024;-64
2021/04/27 08:46:01;;;;;;;17.92;9.07;;;;;;;;;;5052657;28;20010;-65
2021/04/27 08:48:27;;;;;;;18.95;9.35;;;;;;;;;;5053099;28;20021;-65
2021/04/27 08:50:53;;;;;;;16.42;9.25;;;;;;;;;;5052216;28;20503;-64
2021/04/27 08:53:19;;;;;;;13.75;8.40;;;;;;;;;;5052395;28;20116;-67
2021/04/27 08:55:44;;;;;;;18.38;9.52;;;;;;;;;;5053388;28;20021;-67
2021/04/27 08:58:10;;;;;;;16.58;9.85;;;;;;;;;;5051785;28;20028;-68
2021/04/27 09:00:36;;;;;;;13.25;8.98;;;;;;;;;;5050002;28;20021;-68
2021/04/27 09:03:03;;;;;;;18.77;8.93;;;;;;;;;;5044596;28;20493;-68
2021/04/27 09:05:30;;;;;;;19.80;10.27;;;;;;;;;;5050810;28;20035;-65
2021/04/27 09:07:56;;;;;;;15.35;8.88;;;;;;;;;;5062892;28;20063;-67
2021/04/27 09:10:27;;;;;;;19.42;9.25;;;;;;;;;;5068101;28;20016;-67
2021/04/27 09:12:55;;;;;;;17.52;9.70;;;;;;;;;;5058506;28;20396;-67
2021/04/27 09:15:28;;;;;;;23.55;9.57;;;;;;;;;;5059873;28;20108;-67
2021/04/27 09:17:54;;;;;;;17.65;9.60;;;;;;;;;;5050864;28;20554;-67
2021/04/27 09:20:19;;;;;;;16.90;9.70;;;;;;;;;;5057207;28;20024;-66
2021/04/27 09:22:45;;;;;;;15.90;9.45;;;;;;;;;;5061300;28;20025;-67
2021/04/27 09:25:11;;;;;;;14.45;8.63;;;;;;;;;;5057384;28;20025;-66
2021/04/27 09:27:38;;;;;;;12.30;7.68;;;;;;;;;;5057465;28;20043;-66
2021/04/27 09:30:19;;;;;;;14.48;8.10;;;;;;;;;;5068081;28;20373;-67
2021/04/27 09:32:46;;;;;;;13.23;8.85;;;;;;;;;;5032401;28;20024;-68
2021/04/27 09:35:26;;;;;;;13.57;8.35;;;;;;;;;;5043397;28;20473;-68
2021/04/27 09:38:07;;;;;;;15.32;8.20;;;;;;;;;;5042400;28;20105;-68
2021/04/27 09:40:42;;;;;;;15.00;7.53;;;;;;;;;;5042836;28;20017;-65
2021/04/27 09:43:08;;;;;;;14.50;7.20;;;;;;;;;;5042033;28;20021;-66
2021/04/27 09:45:40;;;;;;;9.57;6.15;;;;;;;;;;5040643;28;20371;-66
2021/04/27 09:48:07;;;;;;;11.13;7.03;;;;;;;;;;5041455;28;20047;-66
2021/04/27 09:50:33;;;;;;;12.30;7.57;;;;;;;;;;5042711;28;20025;-66
2021/04/27 09:52:58;;;;;;;11.48;6.82;;;;;;;;;;5050090;28;20384;-66
2021/04/27 09:55:25;;;;;;;10.13;7.28;;;;;;;;;;5061032;28;20485;-68
2021/04/27 09:57:55;;;;;;;10.38;6.53;;;;;;;;;;5048311;28;20428;-69
2021/04/27 10:00:39;;;;;;;16.08;8.05;;;;;;;;;;5050893;28;20028;-68
2021/04/27 10:03:12;;;;;;;19.88;7.25;;;;;;;;;;5064151;28;20029;-66
2021/04/27 10:05:38;;;;;;;11.77;6.20;;;;;;;;;;5058964;28;20427;-69
2021/04/27 10:08:04;;;;;;;9.13;6.28;;;;;;;;;;5058973;28;20021;-67
2021/04/27 10:10:30;;;;;;;11.07;6.70;;;;;;;;;;5053359;28;20028;-67
2021/04/27 10:12:57;;;;;;;10.00;5.82;;;;;;;;;;5050768;28;20057;-68
2021/04/27 10:15:22;;;;;;;10.65;5.30;;;;;;;;;;5050445;28;20406;-68
2021/04/27 10:17:48;;;;;;;11.35;5.95;;;;;;;;;;5054560;28;20099;-66
2021/04/27 10:20:14;;;;;;;8.63;5.20;;;;;;;;;;5061494;28;20021;-67
2021/04/27 10:22:41;;;;;;;8.23;5.28;;;;;;;;;;5055520;28;20036;-67
2021/04/27 10:25:10;;;;;;;7.07;5.57;;;;;;;;;;5051036;28;20466;-67
2021/04/27 10:27:36;;;;;;;9.48;5.45;;;;;;;;;;5050981;28;20099;-68
2021/04/27 10:30:21;;;;;;;11.00;6.13;;;;;;;;;;5051799;28;20112;-67
2021/04/27 10:33:06;;;;;;;9.18;5.63;;;;;;;;;;5050870;28;20453;-67
2021/04/27 10:35:33;;;;;;;8.90;6.07;;;;;;;;;;5048407;28;20449;-68
2021/04/27 10:38:04;;;;;;;11.02;6.63;;;;;;;;;;5050376;28;20052;-67
2021/04/27 10:40:48;;;;;;;10.38;6.63;;;;;;;;;;5051069;28;20136;-68
2021/04/27 10:43:30;;;;;;;11.65;6.38;;;;;;;;;;5045137;28;20032;-67
2021/04/27 10:46:00;;;;;;;10.55;6.30;;;;;;;;;;5050186;28;20377;-68
2021/04/27 10:48:27;;;;;;;14.20;7.03;;;;;;;;;;5050997;28;20017;-66
2021/04/27 10:50:52;;;;;;;10.13;6.50;;;;;;;;;;5051350;28;20029;-67
2021/04/27 10:53:31;;;;;;;15.32;7.85;;;;;;;;;;5051074;28;20037;-68
2021/04/27 10:55:57;;;;;;;15.30;7.43;;;;;;;;;;5051341;28;20033;-68
2021/04/27 10:58:42;;;;;;;12.85;7.25;;;;;;;;;;5046939;28;20035;-69
2021/04/27 11:01:17;;;;;;;11.07;6.65;;;;;;;;;;5063398;28;20017;-68
2021/04/27 11:03:50;;;;;;;10.20;6.30;;;;;;;;;;5058440;28;20021;-69
2021/04/27 11:06:15;;;;;;;10.07;5.88;;;;;;;;;;5070810;28;20473;-68
2021/04/27 11:08:46;;;;;;;8.93;5.38;;;;;;;;;;5058409;28;20148;-68
2021/04/27 11:11:30;;;;;;;15.02;6.20;;;;;;;;;;5070575;28;20027;-67
2021/04/27 11:14:14;;;;;;;10.88;5.75;;;;;;;;;;5062036;28;20028;-67
2021/04/27 11:16:43;;;;;;;11.20;5.90;;;;;;;;;;5061225;28;20450;-66
2021/04/27 11:19:10;;;;;;;9.95;5.68;;;;;;;;;;5064422;28;20025;-66
2021/04/27 11:21:36;;;;;;;12.18;5.25;;;;;;;;;;5054901;28;20020;-66
2021/04/27 11:24:07;;;;;;;8.27;4.85;;;;;;;;;;5055120;28;20029;-67
2021/04/27 11:26:39;;;;;;;8.88;5.38;;;;;;;;;;5054516;28;20504;-67
2021/04/27 11:29:11;;;;;;;8.00;5.25;;;;;;;;;;5055241;28;20048;-66
2021/04/27 11:31:43;;;;;;;9.82;5.95;;;;;;;;;;5054681;28;20051;-63
2021/04/27 11:34:09;;;;;;;11.20;6.40;;;;;;;;;;5054445;28;20017;-69
2021/04/27 11:36:35;;;;;;;9.38;5.47;;;;;;;;;;5054087;28;20078;-66
2021/04/27 11:39:14;;;;;;;10.20;5.82;;;;;;;;;;5054269;28;20025;-67
2021/04/27 11:41:46;;;;;;;13.35;5.88;;;;;;;;;;5054819;28;20017;-74
2021/04/27 11:44:12;;;;;;;10.43;5.68;;;;;;;;;;5052816;28;20017;-69
2021/04/27 11:46:56;;;;;;;9.77;5.75;;;;;;;;;;5047350;28;20086;-71
2021/04/27 11:49:41;;;;;;;10.05;5.60;;;;;;;;;;5070229;28;20099;-72
2021/04/27 11:52:07;;;;;;;7.82;5.53;;;;;;;;;;5057607;28;20012;-71
2021/04/27 11:54:36;;;;;;;9.30;5.43;;;;;;;;;;5066503;28;20023;-71
2021/04/27 11:57:01;;;;;;;10.43;4.82;;;;;;;;;;5068759;28;20123;-72
2021/04/27 11:59:27;;;;;;;10.40;5.65;;;;;;;;;;5056627;28;20120;-72
2021/04/27 12:02:04;;;;;;;44.28;6.50;;;;;;;;;;5063399;28;20077;-73
2021/04/27 12:04:30;;;;;;;11.63;5.15;;;;;;;;;;5063822;28;20059;-71
2021/04/27 12:07:00;;;;;;;11.13;5.80;;;;;;;;;;5065798;28;20028;-76
2021/04/27 12:09:25;;;;;;;;;;;;;;;;;;5056440;28;20051;-68
2021/04/27 12:11:51;;;;;;;11.33;5.20;;;;;;;;;;5069070;28;19916;-67
2021/04/27 12:14:17;;;;;;;11.75;5.20;;;;;;;;;;5060249;28;20028;-67
2021/04/27 12:16:44;;;;;;;11.30;6.05;;;;;;;;;;5059125;28;20059;-71
2021/04/27 12:19:11;;;;;;;10.13;5.10;;;;;;;;;;5067034;28;20021;-70
2021/04/27 12:21:56;;;;;;;6.13;3.58;;;;;;;;;;5054581;28;20052;-71
2021/04/27 12:24:23;;;;;;;9.57;3.80;;;;;;;;;;5064626;28;20020;-69
2021/04/27 12:26:55;;;;;;;6.43;3.80;;;;;;;;;;5063331;28;20021;-72
2021/04/27 12:29:25;;;;;;;9.65;4.53;;;;;;;;;;5055902;28;20013;-71
2021/04/27 12:31:51;;;;;;;11.07;5.35;;;;;;;;;;5068880;28;20465;-73
2021/04/27 12:34:17;;;;;;;21.95;4.78;;;;;;;;;;5060477;28;20013;-71
2021/04/27 12:36:44;;;;;;;19.55;4.82;;;;;;;;;;5064574;28;20661;-69
2021/04/27 12:39:26;;;;;;;9.93;4.85;;;;;;;;;;5051770;28;20009;-71
2021/04/27 12:41:52;;;;;;;12.07;4.28;;;;;;;;;;5054759;28;20024;-71
2021/04/27 12:44:28;;;;;;;12.75;4.63;;;;;;;;;;5060695;28;20016;-71
2021/04/27 12:46:54;;;;;;;8.75;4.18;;;;;;;;;;5068143;28;20497;-71
2021/04/27 12:49:24;;;;;;;11.90;4.43;;;;;;;;;;5053731;28;20036;-70
2021/04/27 12:51:54;;;;;;;10.80;4.53;;;;;;;;;;5037314;28;20017;-70
2021/04/27 12:54:27;;;;;;;34.65;5.20;;;;;;;;;;5060441;28;20051;-70
2021/04/27 12:57:03;;;;;;;25.15;4.85;;;;;;;;;;5056447;28;20044;-70
2021/04/27 12:59:29;;;;;;;6.45;4.28;;;;;;;;;;5052155;28;20482;-71
2021/04/27 13:01:58;;;;;;;16.52;4.65;;;;;;;;;;5054574;28;20024;-75
2021/04/27 13:04:24;;;;;;;8.05;4.22;;;;;;;;;;5051812;28;20021;-74
2021/04/27 13:06:49;;;;;;;8.75;4.63;;;;;;;;;;5051605;28;20362;-67
2021/04/27 13:09:15;;;;;;;13.25;4.70;;;;;;;;;;5064933;28;20085;-66
2021/04/27 13:11:54;;;;;;;9.98;4.70;;;;;;;;;;5055018;28;20021;-67
2021/04/27 13:14:21;;;;;;;8.43;4.60;;;;;;;;;;5063991;28;20066;-67
2021/04/27 13:16:47;;;;;;;9.93;4.47;;;;;;;;;;5059097;28;20065;-66
2021/04/27 13:19:12;;;;;;;11.00;4.20;;;;;;;;;;5050127;28;20386;-67
2021/04/27 13:21:42;;;;;;;11.57;4.85;;;;;;;;;;5068200;28;20028;-66
2021/04/27 13:24:09;;;;;;;8.27;4.80;;;;;;;;;;5058443;28;20040;-66
2021/04/27 13:26:34;;;;;;;6.78;4.45;;;;;;;;;;5060122;28;20070;-66
2021/04/27 13:28:59;;;;;;;9.52;4.30;;;;;;;;;;5064916;28;20484;-67
2021/04/27 13:31:26;;;;;;;11.02;5.80;;;;;;;;;;5054015;28;20044;-66
2021/04/27 13:33:51;;;;;;;10.48;3.92;;;;;;;;;;5067109;28;20021;-67
2021/04/27 13:36:19;;;;;;;21.45;5.25;;;;;;;;;;5059628;28;20083;-66
2021/04/27 13:38:45;;;;;;;6.60;4.00;;;;;;;;;;5058215;28;20048;-64
2021/04/27 13:41:12;;;;;;;10.65;5.45;;;;;;;;;;5066683;28;20116;-64
2021/04/27 13:43:40;;;;;;;12.40;4.68;;;;;;;;;;5054616;28;20424;-65
2021/04/27 13:46:07;;;;;;;9.32;4.55;;;;;;;;;;5064955;28;20017;-65
2021/04/27 13:48:34;;;;;;;6.90;4.70;;;;;;;;;;5058979;28;20036;-65
2021/04/27 13:51:01;;;;;;;8.98;4.68;;;;;;;;;;5057077;28;20024;-64
2021/04/27 13:53:27;;;;;;;12.00;4.93;;;;;;;;;;5066827;28;20028;-64
2021/04/27 13:55:53;;;;;;;13.00;6.05;;;;;;;;;;5055921;28;20016;-64
2021/04/27 13:58:18;;;;;;;11.00;5.18;;;;;;;;;;5062970;28;20025;-64
2021/04/27 14:00:44;;;;;;;7.10;4.57;;;;;;;;;;5052397;28;20023;-63
2021/04/27 14:03:10;;;;;;;9.77;5.43;;;;;;;;;;5050450;28;20468;-63
2021/04/27 14:05:36;;;;;;;10.43;4.65;;;;;;;;;;5065372;28;20028;-64
2021/04/27 14:08:02;;;;;;;7.45;4.38;;;;;;;;;;5061777;28;20469;-63
2021/04/27 14:10:27;;;;;;;11.40;4.45;;;;;;;;;;5061154;28;20062;-66
2021/04/27 14:12:54;;;;;;;13.27;4.82;;;;;;;;;;5057794;28;20017;-65
2021/04/27 14:15:20;;;;;;;23.58;9.07;;;;;;;;;;5067631;28;20055;-65
2021/04/27 14:17:46;;;;;;;12.18;5.28;;;;;;;;;;5049525;28;20106;-66
2021/04/27 14:20:13;;;;;;;12.13;4.50;;;;;;;;;;5063207;28;20031;-67
2021/04/27 14:22:39;;;;;;;16.58;6.05;;;;;;;;;;5044509;28;20060;-67
2021/04/27 14:25:05;;;;;;;9.93;4.57;;;;;;;;;;5041920;28;20064;-67
2021/04/27 14:27:31;;;;;;;9.65;4.88;;;;;;;;;;5044865;28;20366;-66
2021/04/27 14:29:57;;;;;;;9.98;4.78;;;;;;;;;;5048508;28;20021;-65
2021/04/27 14:32:22;;;;;;;18.35;4.30;;;;;;;;;;5046211;28;20017;-64
2021/04/27 14:34:48;;;;;;;7.80;4.25;;;;;;;;;;5043446;28;20084;-65
2021/04/27 14:37:14;;;;;;;7.93;4.70;;;;;;;;;;5042835;28;20021;-65
2021/04/27 14:39:39;;;;;;;7.20;5.30;;;;;;;;;;5070088;28;20472;-63
2021/04/27 14:42:05;;;;;;;20.90;4.65;;;;;;;;;;5061238;28;20013;-65
2021/04/27 14:44:32;;;;;;;16.27;5.43;;;;;;;;;;5065143;28;20155;-64
2021/04/27 14:46:58;;;;;;;8.23;4.68;;;;;;;;;;5068334;28;20028;-64
2021/04/27 14:49:24;;;;;;;10.65;5.70;;;;;;;;;;5057964;28;20027;-64
2021/04/27 14:51:50;;;;;;;12.02;5.53;;;;;;;;;;5071173;28;20043;-64
2021/04/27 14:54:16;;;;;;;27.50;7.03;;;;;;;;;;5062703;28;20016;-63
2021/04/27 14:56:41;;;;;;;12.48;5.60;;;;;;;;;;5062613;28;20358;-65
2021/04/27 14:59:07;;;;;;;12.70;5.38;;;;;;;;;;5069589;28;20473;-64
2021/04/27 15:01:33;;;;;;;11.05;5.10;;;;;;;;;;5058173;28;20359;-64
2021/04/27 15:03:59;;;;;;;7.53;4.82;;;;;;;;;;5069348;28;20513;-64
2021/04/27 15:06:24;;;;;;;9.15;5.20;;;;;;;;;;5063778;28;20095;-64
2021/04/27 15:08:51;;;;;;;7.70;4.85;;;;;;;;;;5061223;28;20017;-63
2021/04/27 15:11:16;;;;;;;13.73;4.65;;;;;;;;;;5070290;28;20078;-64
2021/04/27 15:13:42;;;;;;;12.43;4.82;;;;;;;;;;5058137;28;20020;-64
2021/04/27 15:16:08;;;;;;;9.23;5.22;;;;;;;;;;5067613;28;20102;-64
2021/04/27 15:18:35;;;;;;;11.77;5.13;;;;;;;;;;5064277;28;20040;-64
2021/04/27 15:21:01;;;;;;;15.35;5.55;;;;;;;;;;5060868;28;20033;-64
2021/04/27 15:23:27;;;;;;;8.90;4.95;;;;;;;;;;5070488;28;20066;-65
2021/04/27 15:25:52;;;;;;;11.60;4.35;;;;;;;;;;5058915;28;20013;-63
2021/04/27 15:28:18;;;;;;;7.65;5.13;;;;;;;;;;5066457;28;20020;-63
2021/04/27 15:30:44;;;;;;;13.85;5.60;;;;;;;;;;5065177;28;20025;-62
2021/04/27 15:33:09;;;;;;;9.48;6.07;;;;;;;;;;5059225;28;20056;-62
2021/04/27 15:35:34;;;;;;;13.65;6.20;;;;;;;;;;5070478;28;20107;-63
2021/04/27 15:38:01;;;;;;;9.65;5.68;;;;;;;;;;5058591;28;20063;-63
2021/04/27 15:40:32;;;;;;;17.80;5.93;;;;;;;;;;5064764;28;20045;-64
2021/04/27 15:42:57;;;;;;;11.52;5.97;;;;;;;;;;5067122;28;20005;-63
2021/04/27 15:45:24;;;;;;;11.57;5.05;;;;;;;;;;5056940;28;20017;-63
2021/04/27 15:47:50;;;;;;;10.18;5.60;;;;;;;;;;5068871;28;20465;-63
2021/04/27 15:50:17;;;;;;;14.95;5.70;;;;;;;;;;5061112;28;20020;-63
2021/04/27 15:52:44;;;;;;;11.27;5.70;;;;;;;;;;5061632;28;20082;-63
2021/04/27 15:55:10;;;;;;;11.13;5.40;;;;;;;;;;5068076;28;20089;-62
2021/04/27 15:57:35;;;;;;;11.52;5.82;;;;;;;;;;5056932;28;20033;-63
2021/04/27 16:00:00;;;;;;;12.75;6.05;;;;;;;;;;5068388;28;20052;-63
2021/04/27 16:02:26;;;;;;;12.18;7.70;;;;;;;;;;5062823;28;20024;-63
2021/04/27 16:04:53;;;;;;;13.73;7.25;;;;;;;;;;5060591;28;20013;-63
2021/04/27 16:07:19;;;;;;;25.55;8.65;;;;;;;;;;5068763;28;20054;-63
2021/04/27 16:09:46;;;;;;;10.27;6.20;;;;;;;;;;5056299;28;20037;-63
2021/04/27 16:12:12;;;;;;;16.75;7.78;;;;;;;;;;5066024;28;20024;-63
2021/04/27 16:14:39;;;;;;;17.55;6.60;;;;;;;;;;5063787;28;20024;-63
2021/04/27 16:17:05;;;;;;;16.80;6.63;;;;;;;;;;5058888;28;20051;-63
2021/04/27 16:19:30;;;;;;;17.88;6.65;;;;;;;;;;5069441;28;20020;-64
2021/04/27 16:21:56;;;;;;;8.38;4.32;;;;;;;;;;5058202;28;20021;-63
2021/04/27 16:24:22;;;;;;;13.75;5.75;;;;;;;;;;5064963;28;20048;-63
2021/04/27 16:26:48;;;;;;;13.88;5.07;;;;;;;;;;5064442;28;20023;-64
2021/04/27 16:29:14;;;;;;;11.82;5.85;;;;;;;;;;5057932;28;20013;-63
2021/04/27 16:31:39;;;;;;;17.85;7.68;;;;;;;;;;5069620;28;20020;-64
2021/04/27 16:34:05;;;;;;;16.77;6.13;;;;;;;;;;5058915;28;20048;-63
2021/04/27 16:36:31;;;;;;;22.88;7.00;;;;;;;;;;5062152;28;20028;-64
2021/04/27 16:38:57;;;;;;;12.13;5.78;;;;;;;;;;5064363;28;20469;-63
2021/04/27 16:41:22;;;;;;;10.90;4.72;;;;;;;;;;5055930;28;20108;-63
2021/04/27 16:43:48;;;;;;;14.55;7.13;;;;;;;;;;5069215;28;20009;-63
2021/04/27 16:46:14;;;;;;;10.80;5.38;;;;;;;;;;5059364;28;20048;-63
2021/04/27 16:48:39;;;;;;;16.65;6.68;;;;;;;;;;5061405;28;20443;-63
2021/04/27 16:51:05;;;;;;;53.90;25.10;;;;;;;;;;5066260;28;20024;-63
2021/04/27 16:53:31;;;;;;;15.85;11.20;;;;;;;;;;5054564;28;20016;-64
2021/04/27 16:56:00;;;;;;;51.15;27.23;;;;;;;;;;5067151;28;20025;-64
2021/04/27 16:58:26;;;;;;;12.82;6.10;;;;;;;;;;5061817;28;20017;-63
2021/04/27 17:00:52;;;;;;;8.77;4.18;;;;;;;;;;5058692;28;20021;-65
2021/04/27 17:03:18;;;;;;;12.38;4.22;;;;;;;;;;5068512;28;20033;-64
2021/04/27 17:05:44;;;;;;;13.35;5.18;;;;;;;;;;5055746;28;20057;-64
2021/04/27 17:08:11;;;;;;;12.77;5.72;;;;;;;;;;5064950;28;20100;-63
2021/04/27 17:10:37;;;;;;;13.32;7.85;;;;;;;;;;5062356;28;20489;-64
2021/04/27 17:13:04;;;;;;;17.10;5.65;;;;;;;;;;5057290;28;20040;-64
2021/04/27 17:15:30;;;;;;;19.05;5.63;;;;;;;;;;5068070;28;20020;-65
2021/04/27 17:17:56;;;;;;;11.07;5.28;;;;;;;;;;5057325;28;20024;-65
